createdAt,value
2022-10-24T00:02:52.899Z,13.10
2022-10-24T00:06:35.060Z,13.10
2022-10-24T00:10:18.220Z,13.10
2022-10-24T00:14:00.579Z,13.10
2022-10-24T00:17:42.604Z,13.10
2022-10-24T00:21:24.689Z,13.00
2022-10-24T00:25:07.264Z,13.00
2022-10-24T00:28:49.298Z,13.00
2022-10-24T00:32:31.338Z,13.00
2022-10-24T00:36:15.928Z,13.00
2022-10-24T00:39:57.971Z,13.00
2022-10-24T00:43:39.873Z,12.90
2022-10-24T00:47:25.158Z,12.90
2022-10-24T00:51:28.862Z,12.80
2022-10-24T00:55:11.946Z,12.80
2022-10-24T00:58:56.868Z,12.70
2022-10-24T01:02:39.500Z,12.70
2022-10-24T01:06:28.350Z,12.60
2022-10-24T01:10:47.159Z,12.60
2022-10-24T01:14:45.931Z,12.50
2022-10-24T01:19:23.265Z,12.50
2022-10-24T01:24:07.629Z,12.50
2022-10-24T01:27:58.153Z,12.60
2022-10-24T01:32:14.663Z,12.60
2022-10-24T01:36:14.932Z,12.60
2022-10-24T01:40:03.879Z,12.60
2022-10-24T01:44:09.994Z,12.60
2022-10-24T01:47:59.113Z,12.70
2022-10-24T01:51:43.130Z,12.70
2022-10-24T01:55:25.162Z,12.70
2022-10-24T01:59:26.203Z,12.70
2022-10-24T02:03:11.235Z,12.70
2022-10-24T02:06:56.321Z,12.70
2022-10-24T02:10:45.500Z,12.60
2022-10-24T02:14:43.539Z,12.60
2022-10-24T02:18:26.617Z,12.60
2022-10-24T02:22:36.630Z,12.50
2022-10-24T02:26:41.747Z,12.50
2022-10-24T02:30:26.799Z,12.40
2022-10-24T02:37:58.349Z,12.30
2022-10-24T02:41:42.803Z,12.30
2022-10-24T02:45:26.188Z,12.20
2022-10-24T02:49:08.541Z,12.20
2022-10-24T02:52:50.602Z,12.20
2022-10-24T02:56:33.506Z,12.20
2022-10-24T03:00:18.713Z,12.20
2022-10-24T03:04:00.839Z,12.20
2022-10-24T03:07:42.824Z,12.20
2022-10-24T03:11:24.863Z,12.20
2022-10-24T03:15:07.918Z,12.20
2022-10-24T03:18:49.909Z,12.20
2022-10-24T03:22:32.002Z,12.20
2022-10-24T03:26:13.994Z,12.20
2022-10-24T03:29:55.988Z,12.20
2022-10-24T03:33:37.995Z,12.20
2022-10-24T03:37:22.461Z,12.20
2022-10-24T03:41:05.883Z,12.20
2022-10-24T03:44:48.117Z,12.20
2022-10-24T03:48:30.122Z,12.20
2022-10-24T03:52:12.657Z,12.20
2022-10-24T03:55:57.156Z,12.20
2022-10-24T03:59:39.680Z,12.20
2022-10-24T04:03:21.642Z,12.20
2022-10-24T04:07:05.839Z,12.20
2022-10-24T04:10:49.364Z,12.20
2022-10-24T04:14:31.331Z,12.20
2022-10-24T04:18:13.277Z,12.20
2022-10-24T04:21:55.284Z,12.20
2022-10-24T04:25:37.270Z,12.30
2022-10-24T04:29:19.242Z,12.30
2022-10-24T04:33:01.529Z,12.30
2022-10-24T04:36:43.555Z,12.30
2022-10-24T04:40:25.573Z,12.30
2022-10-24T04:44:07.713Z,12.30
2022-10-24T04:47:49.890Z,12.30
2022-10-24T04:51:31.888Z,12.20
2022-10-24T04:55:13.912Z,12.30
2022-10-24T04:58:55.926Z,12.20
2022-10-24T05:02:37.998Z,12.20
2022-10-24T05:06:19.996Z,12.20
2022-10-24T05:10:02.043Z,12.20
2022-10-24T05:13:44.104Z,12.20
2022-10-24T05:17:26.348Z,12.20
2022-10-24T05:21:08.364Z,12.20
2022-10-24T05:24:50.779Z,12.20
2022-10-24T05:28:33.096Z,12.20
2022-10-24T05:32:15.092Z,12.20
2022-10-24T05:35:57.156Z,12.10
2022-10-24T05:39:39.207Z,12.10
2022-10-24T05:43:22.436Z,12.00
2022-10-24T05:47:04.457Z,12.00
2022-10-24T05:50:46.506Z,11.90
2022-10-24T05:54:37.573Z,11.80
2022-10-24T05:58:30.686Z,11.80
2022-10-24T06:02:20.981Z,11.80
2022-10-24T06:06:04.120Z,11.80
2022-10-24T06:17:39.879Z,11.80
2022-10-24T06:21:22.077Z,11.80
2022-10-24T06:25:04.606Z,11.80
2022-10-24T06:28:47.211Z,11.70
2022-10-24T06:32:29.259Z,11.70
2022-10-24T06:36:12.291Z,11.70
2022-10-24T06:39:54.275Z,11.70
2022-10-24T06:43:37.892Z,11.70
2022-10-24T06:47:19.884Z,11.60
2022-10-24T06:51:02.007Z,11.60
2022-10-24T06:54:44.094Z,11.60
2022-10-24T06:58:26.095Z,11.50
2022-10-24T07:02:09.660Z,11.50
2022-10-24T07:05:51.846Z,11.50
2022-10-24T07:09:33.952Z,11.50
2022-10-24T07:13:15.974Z,11.50
2022-10-24T07:16:58.577Z,11.50
2022-10-24T07:20:40.840Z,11.50
2022-10-24T07:24:22.907Z,11.60
2022-10-24T07:28:05.461Z,11.70
2022-10-24T07:31:48.892Z,11.70
2022-10-24T07:35:30.961Z,11.80
2022-10-24T07:39:16.494Z,11.80
2022-10-24T07:42:58.475Z,11.90
2022-10-24T07:46:42.810Z,11.90
2022-10-24T07:50:24.940Z,12.00
2022-10-24T07:54:06.974Z,12.10
2022-10-24T07:57:48.922Z,12.20
2022-10-24T08:01:31.129Z,12.20
2022-10-24T08:05:13.278Z,12.30
2022-10-24T08:08:55.589Z,12.30
2022-10-24T08:12:37.620Z,12.50
2022-10-24T08:16:21.887Z,12.50
2022-10-24T08:20:08.820Z,12.50
2022-10-24T08:23:53.154Z,12.60
2022-10-24T08:27:35.493Z,12.70
2022-10-24T08:31:20.445Z,12.70
2022-10-24T08:35:02.524Z,12.90
2022-10-24T08:38:44.556Z,13.10
2022-10-24T08:42:26.489Z,13.30
2022-10-24T08:46:17.512Z,13.50
2022-10-24T08:50:24.391Z,13.70
2022-10-24T08:54:13.208Z,13.80
2022-10-24T08:57:58.664Z,14.00
2022-10-24T09:02:19.045Z,14.20
2022-10-24T09:06:06.355Z,14.40
2022-10-24T09:09:53.310Z,14.60
2022-10-24T09:13:38.208Z,14.90
2022-10-24T09:17:34.636Z,15.00
2022-10-24T09:21:16.956Z,15.00
2022-10-24T09:25:07.075Z,15.00
2022-10-24T09:28:49.188Z,15.20
2022-10-24T09:32:33.635Z,16.00
2022-10-24T09:36:18.764Z,16.80
2022-10-24T09:40:12.852Z,18.20
2022-10-24T09:43:57.675Z,20.30
2022-10-24T09:47:42.192Z,21.90
2022-10-24T09:51:48.251Z,21.80
2022-10-24T09:55:32.012Z,20.90
2022-10-24T09:59:35.103Z,20.30
2022-10-24T10:03:24.081Z,19.20
2022-10-24T10:07:26.557Z,18.40
2022-10-24T10:11:12.649Z,18.20
2022-10-24T10:14:55.394Z,18.10
2022-10-24T10:18:40.875Z,17.90
2022-10-24T10:22:28.895Z,17.70
2022-10-24T10:26:19.250Z,17.90
2022-10-24T10:30:16.390Z,18.40
2022-10-24T10:34:21.262Z,18.80
2022-10-24T10:38:15.683Z,19.10
2022-10-24T10:42:17.638Z,19.10
2022-10-24T10:46:21.879Z,19.10
2022-10-24T10:50:26.660Z,19.10
2022-10-24T10:54:30.026Z,19.40
2022-10-24T10:58:27.230Z,19.90
2022-10-24T11:02:36.887Z,21.20
2022-10-24T11:07:05.770Z,22.20
2022-10-24T11:10:55.420Z,23.40
2022-10-24T11:14:43.432Z,24.50
2022-10-24T11:18:35.428Z,25.20
2022-10-24T11:22:24.683Z,25.90
2022-10-24T11:26:13.443Z,26.40
2022-10-24T11:30:15.528Z,25.70
2022-10-24T11:34:01.418Z,26.00
2022-10-24T11:37:46.697Z,26.10
2022-10-24T11:41:58.906Z,25.80
2022-10-24T11:45:44.136Z,24.90
2022-10-24T11:49:41.141Z,23.70
2022-10-24T11:53:29.319Z,24.00
2022-10-24T11:57:16.012Z,24.80
2022-10-24T12:01:09.657Z,24.70
2022-10-24T12:05:22.385Z,23.90
2022-10-24T12:09:30.789Z,22.90
2022-10-24T12:13:33.884Z,21.80
2022-10-24T12:17:17.013Z,22.40
2022-10-24T12:21:12.053Z,22.70
2022-10-24T12:25:14.614Z,21.80
2022-10-24T12:28:59.255Z,20.90
2022-10-24T12:32:45.223Z,20.40
2022-10-24T12:37:08.385Z,19.80
2022-10-24T12:40:52.761Z,19.20
2022-10-24T12:44:34.809Z,18.60
2022-10-24T12:48:34.365Z,18.30
2022-10-24T12:52:31.784Z,19.30
2022-10-24T13:00:04.188Z,21.00
2022-10-24T13:03:54.890Z,20.70
2022-10-24T13:07:55.365Z,19.90
2022-10-24T13:12:02.409Z,19.00
2022-10-24T13:16:12.338Z,18.40
2022-10-24T13:20:22.579Z,18.10
2022-10-24T13:24:17.161Z,18.20
2022-10-24T13:28:20.653Z,18.00
2022-10-24T13:32:05.732Z,17.80
2022-10-24T13:35:48.203Z,17.70
2022-10-24T13:39:37.500Z,17.60
2022-10-24T13:43:22.042Z,17.50
2022-10-24T13:47:22.032Z,17.70
2022-10-24T13:51:18.967Z,17.80
2022-10-24T13:55:19.083Z,17.90
2022-10-24T13:59:01.072Z,18.00
2022-10-24T14:02:43.359Z,18.00
2022-10-24T14:06:29.374Z,18.00
2022-10-24T14:10:14.671Z,18.00
2022-10-24T14:14:06.529Z,17.70
2022-10-24T14:18:03.342Z,17.20
2022-10-24T14:21:46.401Z,16.70
2022-10-24T14:25:36.311Z,16.30
2022-10-24T14:29:34.428Z,16.20
2022-10-24T14:33:16.364Z,16.20
2022-10-24T14:37:08.539Z,16.40
2022-10-24T14:41:06.193Z,16.40
2022-10-24T14:44:54.937Z,16.50
2022-10-24T14:48:49.909Z,16.70
2022-10-24T14:52:38.358Z,16.80
2022-10-24T14:56:32.400Z,16.80
2022-10-24T15:00:23.046Z,16.70
2022-10-24T15:04:06.169Z,16.60
2022-10-24T15:08:16.549Z,16.50
2022-10-24T15:12:02.842Z,16.50
2022-10-24T15:15:49.586Z,16.50
2022-10-24T15:19:38.736Z,16.40
2022-10-24T15:23:21.100Z,16.30
2022-10-24T15:27:12.579Z,16.20
2022-10-24T15:30:55.053Z,16.00
2022-10-24T15:34:37.091Z,15.90
2022-10-24T15:38:19.582Z,15.80
2022-10-24T15:42:01.612Z,15.70
2022-10-24T15:45:44.739Z,15.70
2022-10-24T15:49:29.110Z,15.70
2022-10-24T15:53:20.523Z,15.70
2022-10-24T15:57:05.295Z,15.60
2022-10-24T16:00:47.790Z,15.50
2022-10-24T16:04:32.888Z,15.40
2022-10-24T16:08:18.945Z,15.30
2022-10-24T16:12:01.496Z,15.20
2022-10-24T16:15:43.763Z,15.20
2022-10-24T16:19:26.641Z,15.20
2022-10-24T16:23:09.174Z,15.20
2022-10-24T16:26:51.982Z,15.10
2022-10-24T16:30:37.455Z,15.00
2022-10-24T16:34:19.518Z,14.90
2022-10-24T16:38:02.401Z,14.90
2022-10-24T16:41:46.465Z,14.80
2022-10-24T16:45:29.063Z,14.70
2022-10-24T16:49:11.200Z,14.70
2022-10-24T16:53:01.834Z,14.70
2022-10-24T16:56:44.622Z,14.60
2022-10-24T17:00:26.873Z,14.50
2022-10-24T17:04:09.538Z,14.40
2022-10-24T17:07:51.556Z,14.30
2022-10-24T17:11:44.810Z,14.20
2022-10-24T17:15:36.871Z,14.10
2022-10-24T17:19:19.012Z,14.00
2022-10-24T17:23:03.042Z,13.90
2022-10-24T17:26:48.986Z,13.90
2022-10-24T17:30:31.273Z,13.80
2022-10-24T17:34:13.488Z,13.80
2022-10-24T17:38:14.452Z,13.70
2022-10-24T17:41:56.403Z,13.70
2022-10-24T17:45:38.675Z,13.70
2022-10-24T17:49:21.927Z,13.70
2022-10-24T17:53:04.025Z,13.60
2022-10-24T17:56:46.209Z,13.60
2022-10-24T18:00:28.510Z,13.50
2022-10-24T18:04:10.645Z,13.40
2022-10-24T18:07:53.760Z,13.50
2022-10-24T18:11:35.950Z,13.40
2022-10-24T18:15:21.967Z,13.30
2022-10-24T18:19:04.589Z,13.20
2022-10-24T18:22:46.861Z,13.20
2022-10-24T18:26:29.604Z,13.10
2022-10-24T18:30:12.446Z,13.00
2022-10-24T18:33:55.059Z,13.00
2022-10-24T18:37:37.656Z,13.00
2022-10-24T18:41:37.770Z,12.90
2022-10-24T18:45:25.752Z,12.90
2022-10-24T18:49:10.397Z,12.90
2022-10-24T18:53:27.581Z,12.90
2022-10-24T18:57:25.271Z,12.80
2022-10-24T19:01:13.094Z,12.80
2022-10-24T19:05:12.614Z,12.70
2022-10-24T19:08:54.864Z,12.70
2022-10-24T19:12:36.988Z,12.70
2022-10-24T19:16:28.595Z,12.70
2022-10-24T19:20:19.832Z,12.60
2022-10-24T19:24:02.210Z,12.60
2022-10-24T19:27:44.915Z,12.50
2022-10-24T19:31:27.013Z,12.50
2022-10-24T19:35:09.172Z,12.40
2022-10-24T19:38:57.950Z,12.30
2022-10-24T19:42:40.023Z,12.30
2022-10-24T19:46:22.277Z,12.20
2022-10-24T19:50:04.937Z,12.20
2022-10-24T19:53:48.315Z,12.10
2022-10-24T19:57:30.437Z,12.00
2022-10-24T20:01:18.279Z,11.90
2022-10-24T20:05:00.372Z,11.80
2022-10-24T20:08:43.217Z,11.80
2022-10-24T20:12:25.220Z,11.70
2022-10-24T20:16:07.826Z,11.70
2022-10-24T20:19:49.982Z,11.60
2022-10-24T20:23:32.505Z,11.60
2022-10-24T20:27:15.015Z,11.60
2022-10-24T20:30:57.127Z,11.60
2022-10-24T20:34:39.287Z,11.60
2022-10-24T20:38:21.374Z,11.60
2022-10-24T20:42:03.953Z,11.60
2022-10-24T20:45:48.018Z,11.70
2022-10-24T20:49:30.108Z,11.70
2022-10-24T20:53:12.318Z,11.60
2022-10-24T20:56:55.051Z,11.60
2022-10-24T21:00:38.739Z,11.70
2022-10-24T21:04:21.134Z,11.70
2022-10-24T21:08:03.482Z,11.70
2022-10-24T21:11:45.713Z,11.60
2022-10-24T21:15:27.972Z,11.60
2022-10-24T21:19:10.198Z,11.70
2022-10-24T21:22:52.345Z,11.70
2022-10-24T21:26:53.901Z,11.70
2022-10-24T21:30:36.072Z,11.80
2022-10-24T21:34:19.239Z,11.80
2022-10-24T21:38:01.422Z,11.70
2022-10-24T21:41:44.329Z,11.70
2022-10-24T21:45:26.648Z,11.70
2022-10-24T21:49:09.433Z,11.70
2022-10-24T21:52:51.645Z,11.70
2022-10-24T21:56:39.372Z,11.60
2022-10-24T22:00:21.646Z,11.70
2022-10-24T22:04:04.767Z,11.60
2022-10-24T22:07:49.492Z,11.70
2022-10-24T22:11:33.442Z,11.70
2022-10-24T22:15:15.919Z,11.60
2022-10-24T22:19:03.883Z,11.60
2022-10-24T22:22:46.186Z,11.60
2022-10-24T22:26:29.337Z,11.60
2022-10-24T22:30:11.772Z,11.60
2022-10-24T22:33:54.627Z,11.60
2022-10-24T22:37:37.166Z,11.60
2022-10-24T22:41:19.756Z,11.60
2022-10-24T22:45:02.112Z,11.60
2022-10-24T22:48:49.577Z,11.60
2022-10-24T22:52:32.025Z,11.50
2022-10-24T22:56:27.761Z,11.50
2022-10-24T23:00:11.099Z,11.50
2022-10-24T23:04:22.281Z,11.60
2022-10-24T23:08:09.717Z,11.70
2022-10-24T23:11:52.243Z,11.70
2022-10-24T23:15:34.563Z,11.70
2022-10-24T23:19:21.788Z,11.70
2022-10-24T23:23:16.592Z,11.70
2022-10-24T23:27:12.448Z,11.70
2022-10-24T23:30:55.228Z,11.70
2022-10-24T23:34:37.892Z,11.60
2022-10-24T23:38:20.311Z,11.60
2022-10-24T23:42:02.805Z,11.60
2022-10-24T23:45:55.849Z,11.50
2022-10-24T23:49:48.460Z,11.50
2022-10-24T23:53:49.018Z,11.50
2022-10-24T23:57:37.312Z,11.50
